Time;durP1;ratioP1;P1;durP2;ratioP2;P2;SDS_P1;SDS_P2;PMS_P1;PMS_P2;Temp;Humidity;BMP_temperature;BMP_pressure;BME280_temperature;BME280_humidity;BME280_pressure;Samples;Min_cycle;Max_cycle;Signal;HPM_P1;HPM_P2
2020/12/22 00:00:45;;;;;;;4.53;2.87;;;;;;;-3.12;84.54;101642.22;1803485;79;21032;-72
2020/12/22 00:03:13;;;;;;;4.17;3.07;;;;;;;-3.14;84.53;101636.11;1793870;79;22251;-73
2020/12/22 00:05:40;;;;;;;2.77;2.40;;;;;;;-3.15;84.51;101631.72;1771817;81;20938;-72
2020/12/22 00:08:12;;;;;;;7.50;3.80;;;;;;;-3.16;84.54;101630.86;1771931;81;20947;-73
2020/12/22 00:10:40;;;;;;;5.37;3.33;;;;;;;-3.14;84.57;101630.35;1771834;81;21053;-72
2020/12/22 00:13:08;;;;;;;3.23;2.57;;;;;;;-3.15;84.56;101636.58;1771884;81;20982;-72
2020/12/22 00:15:37;;;;;;;5.80;3.60;;;;;;;-3.15;84.56;101637.01;1771686;81;21029;-74
2020/12/22 00:18:06;;;;;;;5.17;3.90;;;;;;;-3.15;84.58;101639.66;1771711;80;21049;-72
2020/12/22 00:20:35;;;;;;;12.97;4.90;;;;;;;-3.16;84.58;101630.00;1771757;81;20909;-72
2020/12/22 00:23:04;;;;;;;20.77;8.57;;;;;;;-3.17;84.60;101630.90;1771812;81;20913;-72
2020/12/22 00:25:32;;;;;;;16.97;6.70;;;;;;;-3.17;84.62;101635.76;1771732;81;20941;-72
2020/12/22 00:28:00;;;;;;;8.37;4.33;;;;;;;-3.16;84.66;101635.30;1771803;81;21171;-72
2020/12/22 00:30:28;;;;;;;12.27;6.30;;;;;;;-3.18;84.66;101637.13;1771710;81;21048;-73
2020/12/22 00:32:56;;;;;;;9.23;5.10;;;;;;;-3.19;84.67;101638.02;1771839;81;21032;-73
2020/12/22 00:35:24;;;;;;;7.00;4.17;;;;;;;-3.17;84.71;101634.87;1771812;81;20929;-73
2020/12/22 00:37:53;;;;;;;14.13;7.43;;;;;;;-3.17;84.75;101627.82;1771818;81;20925;-73
2020/12/22 00:40:21;;;;;;;13.33;8.07;;;;;;;-3.17;84.79;101635.76;1771738;81;21380;-73
2020/12/22 00:42:49;;;;;;;8.53;5.93;;;;;;;-3.14;84.81;101636.11;1771824;81;21638;-73
2020/12/22 00:45:19;;;;;;;8.40;4.13;;;;;;;-3.13;84.83;101637.86;1771748;80;20949;-73
2020/12/22 00:47:47;;;;;;;8.77;3.93;;;;;;;-3.16;84.81;101633.50;1771689;81;21000;-72
2020/12/22 00:50:15;;;;;;;7.27;5.07;;;;;;;-3.16;84.77;101633.97;1771756;81;21028;-72
2020/12/22 00:52:43;;;;;;;11.87;6.40;;;;;;;-3.15;84.82;101627.31;1777924;80;21091;-72
2020/12/22 00:55:12;;;;;;;12.37;6.27;;;;;;;-3.11;84.87;101626.30;1771675;81;21017;-72
2020/12/22 00:57:40;;;;;;;13.27;7.23;;;;;;;-3.08;84.87;101626.22;1771835;81;21048;-72
2020/12/22 01:00:14;;;;;;;9.30;4.60;;;;;;;-3.09;84.80;101624.48;1771802;81;21565;-73
2020/12/22 01:02:41;;;;;;;10.17;5.73;;;;;;;-3.10;84.76;101626.73;1774625;79;21084;-73
2020/12/22 01:05:09;;;;;;;10.63;5.43;;;;;;;-3.10;84.72;101631.13;1803458;79;22256;-73
2020/12/22 01:07:37;;;;;;;5.77;3.67;;;;;;;-3.12;84.66;101628.52;1803304;79;20980;-73
2020/12/22 01:10:05;;;;;;;5.10;3.77;;;;;;;-3.13;84.65;101617.55;1803426;79;20996;-73
2020/12/22 01:12:33;;;;;;;4.70;3.30;;;;;;;-3.16;84.63;101615.45;1803511;79;21550;-72
2020/12/22 01:15:03;;;;;;;2.70;2.47;;;;;;;-3.16;84.66;101611.02;1803481;79;21107;-72
2020/12/22 01:17:31;;;;;;;4.63;3.63;;;;;;;-3.18;84.67;101603.58;1803411;79;21333;-73
2020/12/22 01:19:59;;;;;;;5.07;3.10;;;;;;;-3.19;84.72;101598.33;1779252;78;20953;-72
2020/12/22 01:22:27;;;;;;;5.13;2.83;;;;;;;-3.19;84.76;101614.20;1722063;83;21459;-73
2020/12/22 01:24:54;;;;;;;3.20;3.00;;;;;;;-3.22;84.79;101603.70;1729520;82;20988;-72
2020/12/22 01:27:22;;;;;;;7.53;3.13;;;;;;;-3.26;84.83;101599.84;1722873;83;20937;-72
2020/12/22 01:29:50;;;;;;;7.93;3.47;;;;;;;-3.26;84.90;101596.31;1719666;83;22351;-73
2020/12/22 01:32:18;;;;;;;4.53;3.23;;;;;;;-3.26;84.96;101595.87;1719644;83;21009;-73
2020/12/22 01:34:46;;;;;;;8.73;3.60;;;;;;;-3.28;84.99;101587.55;1719815;83;21171;-72
2020/12/22 01:37:14;;;;;;;4.10;2.77;;;;;;;-3.29;85.03;101591.13;1773318;80;21060;-72
2020/12/22 01:39:42;;;;;;;3.80;3.00;;;;;;;-3.30;85.08;101591.56;1785319;80;21490;-72
2020/12/22 01:42:10;;;;;;;3.33;2.50;;;;;;;-3.31;85.12;101588.53;1777439;80;21633;-72
2020/12/22 01:44:37;;;;;;;3.27;2.37;;;;;;;-3.31;85.16;101587.20;1755071;81;20961;-73
2020/12/22 01:47:05;;;;;;;3.03;2.40;;;;;;;-3.31;85.18;101585.88;1777546;80;21582;-73
2020/12/22 01:49:33;;;;;;;5.97;3.47;;;;;;;-3.31;85.21;101594.25;1755189;81;20921;-73
2020/12/22 01:52:01;;;;;;;3.40;2.47;;;;;;;-3.31;85.25;101581.91;1775355;80;21009;-71
2020/12/22 01:54:29;;;;;;;4.43;2.53;;;;;;;-3.31;85.25;101583.67;1717184;82;21165;-72
2020/12/22 01:56:56;;;;;;;3.77;2.43;;;;;;;-3.32;85.33;101588.10;1755220;81;21047;-73
2020/12/22 01:59:25;;;;;;;3.10;2.40;;;;;;;-3.31;85.39;101578.38;1738953;82;20942;-73
2020/12/22 02:01:53;;;;;;;3.90;3.17;;;;;;;-3.30;85.45;101577.02;1755297;81;21481;-73
2020/12/22 02:04:21;;;;;;;2.90;2.47;;;;;;;-3.30;85.51;101567.75;1729839;82;20941;-72
2020/12/22 02:06:48;;;;;;;4.97;2.80;;;;;;;-3.31;85.49;101571.33;1732827;82;21198;-72
2020/12/22 02:09:17;;;;;;;3.33;2.73;;;;;;;-3.30;85.49;101574.38;1732632;82;21045;-72
2020/12/22 02:11:44;;;;;;;3.77;3.43;;;;;;;-3.32;85.46;101577.52;1735301;81;20973;-71
2020/12/22 02:14:12;;;;;;;2.37;2.17;;;;;;;-3.31;85.46;101575.30;1732997;82;21097;-72
2020/12/22 02:16:40;;;;;;;1.07;1.07;;;;;;;-3.31;85.42;101569.12;1727907;82;21001;-72
2020/12/22 02:19:09;;;;;;;2.37;1.80;;;;;;;-3.29;85.39;101573.47;1723504;82;21385;-72
2020/12/22 02:21:37;;;;;;;4.23;2.40;;;;;;;-3.29;85.37;101574.80;1721936;83;21027;-73
2020/12/22 02:24:05;;;;;;;2.80;1.90;;;;;;;-3.28;85.35;101569.89;1798299;79;20939;-73
2020/12/22 02:26:32;;;;;;;5.53;4.10;;;;;;;-3.26;85.31;101565.89;1801236;79;21085;-73
2020/12/22 02:29:00;;;;;;;3.03;2.70;;;;;;;-3.26;85.26;101566.78;1730793;82;20991;-74
2020/12/22 02:31:28;;;;;;;3.33;2.60;;;;;;;-3.25;85.18;101562.34;1731223;82;21573;-72
2020/12/22 02:33:56;;;;;;;4.23;2.90;;;;;;;-3.25;85.16;101559.70;1730145;83;21054;-72
2020/12/22 02:36:23;;;;;;;3.40;2.30;;;;;;;-3.24;85.10;101558.77;1731214;82;21011;-74
2020/12/22 02:38:51;;;;;;;4.10;2.60;;;;;;;-3.25;85.06;101552.62;1730229;83;21588;-72
2020/12/22 02:41:19;;;;;;;3.23;2.43;;;;;;;-3.25;84.99;101555.27;1731094;82;21007;-72
2020/12/22 02:43:47;;;;;;;5.43;3.33;;;;;;;-3.26;84.93;101561.92;1730163;83;21537;-72
2020/12/22 02:46:15;;;;;;;2.13;2.00;;;;;;;-3.25;84.90;101566.31;1731010;82;20991;-72
2020/12/22 02:48:43;;;;;;;3.30;2.50;;;;;;;-3.27;84.85;101560.20;1731033;82;21596;-73
2020/12/22 02:51:12;;;;;;;1.67;1.57;;;;;;;-3.28;84.80;101568.58;1727329;81;20987;-72
2020/12/22 02:53:39;;;;;;;2.40;2.07;;;;;;;-3.28;84.74;101567.25;1772053;80;21559;-72
2020/12/22 02:56:09;;;;;;;2.20;1.90;;;;;;;-3.28;84.71;101561.95;1757633;81;21144;-72
2020/12/22 02:58:37;;;;;;;4.27;2.33;;;;;;;-3.28;84.68;101544.77;1747867;80;20989;-73
2020/12/22 03:01:04;;;;;;;2.30;2.10;;;;;;;-3.29;84.64;101552.31;1761898;81;21002;-72
2020/12/22 03:03:32;;;;;;;3.50;2.27;;;;;;;-3.30;84.59;101553.20;1759657;81;21035;-72
2020/12/22 03:06:00;;;;;;;2.40;2.23;;;;;;;-3.33;84.51;101549.35;1788239;79;21117;-71
2020/12/22 03:08:29;;;;;;;2.67;2.47;;;;;;;-3.35;84.41;101550.30;1713730;83;22742;-72
2020/12/22 03:10:58;;;;;;;2.50;2.30;;;;;;;-3.39;84.33;101557.91;1787780;79;21624;-71
2020/12/22 03:13:26;;;;;;;5.50;2.97;;;;;;;-3.43;84.25;101563.75;1714375;82;20986;-73
2020/12/22 03:15:54;;;;;;;1.87;1.77;;;;;;;-3.47;84.21;101558.12;1740367;81;21078;-72
2020/12/22 03:18:21;;;;;;;4.23;2.57;;;;;;;-3.52;84.13;101564.88;1726673;82;20935;-71
2020/12/22 03:20:49;;;;;;;2.00;1.60;;;;;;;-3.54;84.11;101566.70;1780346;79;21799;-73
2020/12/22 03:23:17;;;;;;;3.80;2.03;;;;;;;-3.57;84.05;101572.08;1780263;80;20993;-72
2020/12/22 03:25:45;;;;;;;5.73;3.13;;;;;;;-3.61;83.97;101570.44;1780261;79;20985;-72
2020/12/22 03:28:13;;;;;;;2.97;2.67;;;;;;;-3.63;83.92;101560.33;1773851;80;21468;-72
2020/12/22 03:30:41;;;;;;;2.47;1.30;;;;;;;-3.65;83.88;101563.47;1771761;80;20926;-72
2020/12/22 03:33:09;;;;;;;1.53;1.43;;;;;;;-3.67;83.85;101557.38;1771840;81;21372;-72
2020/12/22 03:35:36;;;;;;;2.80;2.60;;;;;;;-3.68;83.82;101551.69;1771863;81;21029;-72
2020/12/22 03:38:04;;;;;;;2.60;2.40;;;;;;;-3.69;83.79;101557.41;1772001;81;20970;-72
2020/12/22 03:40:32;;;;;;;5.23;2.07;;;;;;;-3.69;83.81;101556.55;1771988;81;20990;-72
2020/12/22 03:42:59;;;;;;;3.90;2.90;;;;;;;-3.72;83.78;101557.95;1771929;81;20998;-72
2020/12/22 03:45:27;;;;;;;4.00;2.90;;;;;;;-3.74;83.74;101559.77;1771849;81;22090;-72
2020/12/22 03:47:55;;;;;;;2.90;2.27;;;;;;;-3.77;83.71;101558.53;1771853;81;21009;-73
2020/12/22 03:50:24;;;;;;;2.50;2.30;;;;;;;-3.79;83.71;101570.92;1771908;80;20939;-73
2020/12/22 03:52:52;;;;;;;1.67;1.30;;;;;;;-3.79;83.70;101568.28;1774377;80;21618;-72
2020/12/22 03:55:20;;;;;;;2.30;2.10;;;;;;;-3.81;83.70;101565.67;1785902;80;21444;-72
2020/12/22 03:57:48;;;;;;;2.10;1.70;;;;;;;-3.82;83.71;101565.28;1773421;80;21265;-72
2020/12/22 04:00:16;;;;;;;3.70;2.17;;;;;;;-3.82;83.74;101576.71;1771604;81;21089;-73
2020/12/22 04:02:44;;;;;;;2.23;2.07;;;;;;;-3.82;83.71;101573.21;1774447;79;20894;-72
2020/12/22 04:05:11;;;;;;;4.33;2.93;;;;;;;-3.83;83.70;101571.00;1718872;82;21021;-72
2020/12/22 04:07:40;;;;;;;1.90;1.80;;;;;;;-3.81;83.71;101569.64;1796706;79;20943;-72
2020/12/22 04:10:07;;;;;;;2.23;2.03;;;;;;;-3.82;83.69;101578.03;1718818;83;21119;-72
2020/12/22 04:12:36;;;;;;;4.83;2.47;;;;;;;-3.80;83.69;101570.06;1796483;79;21022;-72
2020/12/22 04:15:05;;;;;;;5.03;2.87;;;;;;;-3.79;83.69;101564.31;1718812;82;20979;-73
2020/12/22 04:17:33;;;;;;;2.67;2.47;;;;;;;-3.80;83.64;101560.81;1796698;79;20986;-72
2020/12/22 04:20:03;;;;;;;2.23;2.03;;;;;;;-3.78;83.64;101559.45;1777058;79;20949;-72
2020/12/22 04:22:32;;;;;;;3.13;2.83;;;;;;;-3.78;83.60;101568.24;1771861;81;22604;-73
2020/12/22 04:24:59;;;;;;;3.00;2.67;;;;;;;-3.76;83.59;101565.09;1722088;83;20982;-73
2020/12/22 04:27:27;;;;;;;3.27;2.60;;;;;;;-3.76;83.52;101566.42;1729863;83;21072;-72
2020/12/22 04:29:55;;;;;;;2.57;2.37;;;;;;;-3.76;83.48;101565.09;1771788;81;21020;-73
2020/12/22 04:32:22;;;;;;;5.13;3.10;;;;;;;-3.76;83.44;101561.59;1722102;83;21033;-73
2020/12/22 04:34:51;;;;;;;6.00;2.70;;;;;;;-3.76;83.37;101558.48;1729852;82;21660;-74
2020/12/22 04:37:18;;;;;;;2.70;2.50;;;;;;;-3.78;83.27;101549.73;1771788;81;21558;-73
2020/12/22 04:39:46;;;;;;;4.33;2.80;;;;;;;-3.79;83.15;101555.92;1771628;81;21016;-72
2020/12/22 04:42:15;;;;;;;4.33;3.03;;;;;;;-3.82;83.05;101552.92;1722056;83;21041;-73
2020/12/22 04:44:44;;;;;;;4.07;2.90;;;;;;;-3.86;82.95;101551.72;1729984;83;20985;-73
2020/12/22 04:47:12;;;;;;;2.63;2.43;;;;;;;-3.86;82.92;101560.53;1729933;83;22527;-73
2020/12/22 04:49:42;;;;;;;4.63;2.43;;;;;;;-3.87;82.90;101568.03;1750732;81;20977;-73
2020/12/22 04:52:11;;;;;;;3.07;2.37;;;;;;;-3.88;82.88;101575.57;1771669;81;20925;-73
2020/12/22 04:54:39;;;;;;;2.07;1.87;;;;;;;-3.88;82.91;101574.25;1750411;80;21122;-73
2020/12/22 04:57:07;;;;;;;3.63;2.80;;;;;;;-3.85;82.94;101574.61;1722167;83;21538;-74
2020/12/22 04:59:37;;;;;;;4.60;2.87;;;;;;;-3.86;82.95;101571.11;1772160;80;21816;-73
2020/12/22 05:02:06;;;;;;;4.70;3.00;;;;;;;-3.85;82.94;101576.78;1722064;83;21013;-73
2020/12/22 05:04:37;;;;;;;1.90;1.80;;;;;;;-3.84;82.94;101581.64;1729023;81;21068;-73
2020/12/22 05:07:05;;;;;;;3.67;2.47;;;;;;;-3.84;82.93;101582.50;1733344;82;21084;-73
2020/12/22 05:09:34;;;;;;;2.10;1.87;;;;;;;-3.84;82.88;101576.36;1733438;82;21741;-73
2020/12/22 05:12:01;;;;;;;2.20;2.00;;;;;;;-3.87;82.82;101573.33;1733833;82;20987;-72
2020/12/22 05:14:31;;;;;;;4.90;3.53;;;;;;;-3.86;82.74;101574.18;1733684;82;20978;-74
2020/12/22 05:17:02;;;;;;;4.10;2.33;;;;;;;-3.87;82.71;101577.75;1733553;82;20970;-73
2020/12/22 05:19:35;;;;;;;1.83;1.73;;;;;;;-3.89;82.67;101573.83;1720017;81;21054;-73
2020/12/22 05:22:03;;;;;;;4.00;2.50;;;;;;;-3.90;82.66;101581.33;1709257;84;21119;-72
2020/12/22 05:24:31;;;;;;;3.40;2.67;;;;;;;-3.91;82.60;101581.36;1709085;84;21263;-73
2020/12/22 05:26:59;;;;;;;3.87;3.47;;;;;;;-3.91;82.58;101586.65;1685652;84;21567;-73
2020/12/22 05:29:28;;;;;;;1.63;1.53;;;;;;;-3.92;82.58;101587.11;1709140;82;21042;-72
2020/12/22 05:31:56;;;;;;;2.97;2.67;;;;;;;-3.92;82.58;101579.18;1708870;82;21093;-73
2020/12/22 05:34:27;;;;;;;2.17;1.97;;;;;;;-3.91;82.56;101575.64;1709192;84;21508;-73
2020/12/22 05:36:59;;;;;;;5.17;3.17;;;;;;;-3.90;82.57;101572.08;1705815;84;21828;-73
2020/12/22 05:39:27;;;;;;;2.67;2.47;;;;;;;-3.86;82.58;101571.53;1686628;84;21721;-73
2020/12/22 05:41:55;;;;;;;3.13;2.50;;;;;;;-3.84;82.56;101576.36;1709049;84;20927;-73
2020/12/22 05:44:26;;;;;;;2.27;2.10;;;;;;;-3.82;82.55;101585.11;1708954;82;21496;-72
2020/12/22 05:46:54;;;;;;;4.90;2.08;;;;;;;-3.81;82.52;101592.11;1709178;84;20923;-73
2020/12/22 05:49:23;;;;;;;4.73;2.77;;;;;;;-3.82;82.46;101593.89;1663129;84;39209;-73
2020/12/22 05:51:53;;;;;;;2.23;2.03;;;;;;;-3.79;82.45;101595.58;1709171;84;21588;-72
2020/12/22 05:54:20;;;;;;;2.63;2.40;;;;;;;-3.75;82.45;101599.89;1708627;82;21021;-73
2020/12/22 05:56:48;;;;;;;3.87;2.30;;;;;;;-3.74;82.41;101604.25;1714481;83;21151;-74
2020/12/22 05:59:20;;;;;;;3.23;2.33;;;;;;;-3.72;82.35;101603.78;1714437;83;20997;-74
2020/12/22 06:01:48;;;;;;;4.30;2.50;;;;;;;-3.70;82.28;101605.03;1714398;83;21378;-71
2020/12/22 06:04:18;;;;;;;2.83;2.53;;;;;;;-3.71;82.10;101598.89;1770714;79;21533;-71
2020/12/22 06:06:48;;;;;;;2.37;2.10;;;;;;;-3.72;82.01;101604.21;1718355;82;21552;-70
2020/12/22 06:09:16;;;;;;;4.30;2.70;;;;;;;-3.70;81.97;101601.95;1700099;82;21658;-71
2020/12/22 06:11:47;;;;;;;3.90;2.50;;;;;;;-3.69;81.89;101604.14;1748232;82;21528;-70
2020/12/22 06:14:23;;;;;;;3.67;2.13;;;;;;;-3.68;81.83;101600.13;1748062;82;21559;-70
2020/12/22 06:16:51;;;;;;;3.03;2.13;;;;;;;-3.63;81.79;101606.59;1746997;82;21180;-70
2020/12/22 06:19:19;;;;;;;3.00;2.70;;;;;;;-3.62;81.67;101609.20;1735032;81;21001;-71
2020/12/22 06:21:52;;;;;;;3.90;2.97;;;;;;;-3.65;81.51;101597.41;1716170;83;21026;-70
2020/12/22 06:24:20;;;;;;;4.33;2.00;;;;;;;-3.65;81.38;101599.17;1701962;82;20878;-71
2020/12/22 06:27:00;;;;;;;3.03;2.77;;;;;;;-3.65;81.32;101594.77;1741230;82;21563;-70
2020/12/22 06:29:28;;;;;;;4.53;3.73;;;;;;;-3.60;81.28;101584.52;1739284;82;21610;-71
2020/12/22 06:32:18;;;;;;;5.53;2.63;;;;;;;-3.59;81.19;101592.84;1730771;82;21029;-71
2020/12/22 06:34:45;;;;;;;1.63;1.53;;;;;;;-3.54;81.22;101594.47;1718337;82;21626;-72
2020/12/22 06:37:13;;;;;;;6.73;3.83;;;;;;;-3.47;81.19;101596.47;1733601;82;21212;-70
2020/12/22 06:39:43;;;;;;;3.33;2.60;;;;;;;-3.43;81.15;101596.81;1735192;82;21391;-70
2020/12/22 06:42:41;;;;;;;5.27;3.17;;;;;;;-3.40;81.04;101599.81;1671402;84;21068;-70
2020/12/22 06:45:28;;;;;;;4.30;2.37;;;;;;;-3.39;80.87;101602.42;1661069;84;21072;-73
2020/12/22 06:47:59;;;;;;;3.10;2.57;;;;;;;-3.41;80.66;101597.62;1704594;84;21176;-70
2020/12/22 06:50:44;;;;;;;3.50;3.00;;;;;;;-3.40;80.55;101592.73;1675088;84;21176;-72
2020/12/22 06:53:35;;;;;;;3.17;2.60;;;;;;;-3.37;80.49;101587.83;1671620;84;21397;-70
2020/12/22 06:56:03;;;;;;;5.30;3.20;;;;;;;-3.34;80.40;101582.00;1709775;83;21515;-70
2020/12/22 06:58:47;;;;;;;3.67;1.90;;;;;;;-3.34;80.21;101571.41;1696565;81;20990;-77
2020/12/22 07:01:33;;;;;;;4.93;3.07;;;;;;;-3.35;80.13;101570.98;1682128;84;21187;-77
2020/12/22 07:04:21;;;;;;;5.67;3.00;;;;;;;-3.31;80.07;101566.47;1702065;81;20986;-76
2020/12/22 07:06:56;;;;;;;4.60;2.57;;;;;;;-3.31;79.94;101563.40;1705907;84;21207;-75
2020/12/22 07:09:35;;;;;;;7.73;3.50;;;;;;;-3.28;79.85;101560.64;1673648;85;21175;-79
2020/12/22 07:12:12;;;;;;;3.37;2.83;;;;;;;-3.20;79.89;101568.37;1651645;85;21101;-75
2020/12/22 07:14:48;;;;;;;2.90;2.57;;;;;;;-3.15;79.76;101568.21;1707757;83;21273;-75
2020/12/22 07:17:19;;;;;;;3.50;3.20;;;;;;;-3.13;79.59;101575.67;1671521;85;21069;-74
2020/12/22 07:19:49;;;;;;;2.90;2.60;;;;;;;-3.18;79.29;101576.27;1679161;84;22769;-74
2020/12/22 07:22:20;;;;;;;3.90;1.93;;;;;;;-3.21;79.21;101567.94;1704637;82;21033;-75
2020/12/22 07:24:51;;;;;;;3.97;2.47;;;;;;;-3.19;79.22;101572.73;1674252;85;21237;-75
2020/12/22 07:27:18;;;;;;;4.23;3.27;;;;;;;-3.11;79.28;101572.52;1708985;84;21034;-74
2020/12/22 07:29:46;;;;;;;5.47;3.43;;;;;;;-3.07;79.26;101569.72;1685799;83;21061;-76
2020/12/22 07:32:14;;;;;;;5.13;2.93;;;;;;;-3.02;79.18;101570.05;1708918;84;21371;-76
2020/12/22 07:34:42;;;;;;;2.90;2.17;;;;;;;-3.00;79.09;101571.73;1651216;84;21315;-75
2020/12/22 07:37:12;;;;;;;5.40;3.13;;;;;;;-2.98;79.04;101563.75;1709109;83;21086;-75
2020/12/22 07:39:40;;;;;;;6.83;3.60;;;;;;;-2.95;78.93;101568.48;1694987;83;21087;-75
2020/12/22 07:42:19;;;;;;;2.37;2.03;;;;;;;-2.94;78.79;101566.27;1732863;82;21029;-76
2020/12/22 07:44:47;;;;;;;7.30;4.10;;;;;;;-2.99;78.55;101559.35;1715092;82;21216;-75
2020/12/22 07:47:16;;;;;;;3.20;2.80;;;;;;;-3.04;78.46;101554.69;1731180;82;21638;-76
2020/12/22 07:49:45;;;;;;;4.03;3.43;;;;;;;-3.09;78.36;101555.67;1745070;82;21057;-78
2020/12/22 07:52:19;;;;;;;8.13;3.67;;;;;;;-3.14;78.25;101562.02;1747437;82;21175;-76
2020/12/22 07:54:57;;;;;;;4.90;2.87;;;;;;;-3.18;78.18;101563.03;1730347;82;21216;-77
2020/12/22 07:57:25;;;;;;;2.70;2.50;;;;;;;-3.24;78.08;101561.41;1723145;82;22529;-73
2020/12/22 08:00:07;;;;;;;4.17;3.77;;;;;;;-3.29;77.96;101560.25;1777913;80;21163;-70
2020/12/22 08:02:35;;;;;;;2.20;2.00;;;;;;;-3.32;77.92;101560.79;1776681;80;21149;-72
2020/12/22 08:05:11;;;;;;;5.13;3.03;;;;;;;-3.37;77.90;101555.63;1781796;80;21064;-69
2020/12/22 08:07:42;;;;;;;5.20;3.67;;;;;;;-3.35;77.98;101556.91;1785558;80;20934;-72
2020/12/22 08:10:13;;;;;;;2.60;2.40;;;;;;;-3.32;78.03;101556.36;1783531;80;21312;-75
2020/12/22 08:12:53;;;;;;;3.50;2.75;;;;;;;-3.27;78.09;101551.80;1784892;80;20962;-78
2020/12/22 08:15:22;;;;;;;6.17;4.23;;;;;;;-3.21;78.04;101548.56;1784457;80;21060;-75
2020/12/22 08:17:53;;;;;;;2.63;2.23;;;;;;;-3.17;78.04;101542.26;1784721;80;21090;-75
2020/12/22 08:20:21;;;;;;;2.80;2.60;;;;;;;-3.14;77.96;101537.73;1719010;83;21901;-76
2020/12/22 08:22:50;;;;;;;3.10;2.43;;;;;;;-3.15;77.82;101532.48;1724703;82;21800;-73
2020/12/22 08:25:18;;;;;;;5.13;3.63;;;;;;;-3.15;77.78;101529.84;1721455;82;21048;-77
2020/12/22 08:27:46;;;;;;;3.30;2.87;;;;;;;-3.13;77.71;101528.90;1711981;83;21055;-76
2020/12/22 08:30:21;;;;;;;5.13;3.03;;;;;;;-3.11;77.64;101532.36;1785192;79;20983;-73
2020/12/22 08:32:49;;;;;;;3.77;2.60;;;;;;;-3.12;77.50;101522.67;1782018;80;21009;-74
2020/12/22 08:35:24;;;;;;;2.67;2.47;;;;;;;-3.15;77.40;101518.83;1784316;80;21366;-73
2020/12/22 08:37:52;;;;;;;7.53;2.70;;;;;;;-3.16;77.32;101520.19;1783915;80;21014;-75
2020/12/22 08:40:30;;;;;;;8.43;4.37;;;;;;;-3.16;77.31;101523.70;1777944;78;20985;-74
2020/12/22 08:42:58;;;;;;;5.50;3.27;;;;;;;-3.18;77.23;101529.49;1786403;80;21115;-73
2020/12/22 08:45:30;;;;;;;5.77;3.57;;;;;;;-3.25;77.02;101527.48;1782232;80;20967;-78
2020/12/22 08:47:57;;;;;;;6.20;3.77;;;;;;;-3.37;76.73;101517.73;1788814;80;21157;-73
2020/12/22 08:50:25;;;;;;;3.53;3.23;;;;;;;-3.47;76.69;101515.37;1784087;80;20955;-77
2020/12/22 08:52:54;;;;;;;5.07;3.70;;;;;;;-3.49;76.80;101516.31;1787832;80;20972;-74
2020/12/22 08:55:22;;;;;;;6.30;3.83;;;;;;;-3.47;76.92;101510.08;1775085;79;20939;-74
2020/12/22 08:57:52;;;;;;;5.13;3.00;;;;;;;-3.41;77.06;101509.49;1774286;79;21019;-75
2020/12/22 09:00:24;;;;;;;5.47;3.17;;;;;;;-3.38;77.06;101501.01;1708918;84;22528;-71
2020/12/22 09:02:53;;;;;;;3.33;2.33;;;;;;;-3.35;77.05;101498.71;1726858;81;21047;-74
2020/12/22 09:05:23;;;;;;;5.73;4.00;;;;;;;-3.34;77.03;101509.72;1719435;82;21579;-77
2020/12/22 09:07:59;;;;;;;3.10;2.37;;;;;;;-3.32;77.04;101507.42;1697182;84;21460;-74
2020/12/22 09:10:26;;;;;;;4.07;2.73;;;;;;;-3.29;77.00;101502.51;1728057;82;21141;-75
2020/12/22 09:12:54;;;;;;;3.27;2.57;;;;;;;-3.26;77.02;101505.93;1765219;80;21671;-74
2020/12/22 09:15:23;;;;;;;6.83;3.83;;;;;;;-3.24;76.93;101504.53;1781566;80;21431;-71
2020/12/22 09:17:51;;;;;;;4.23;3.57;;;;;;;-3.23;76.86;101504.09;1779752;79;21519;-73
2020/12/22 09:20:21;;;;;;;4.00;2.97;;;;;;;-3.25;76.89;101497.06;1731207;81;21104;-71
2020/12/22 09:22:49;;;;;;;5.50;3.73;;;;;;;-3.25;76.85;101497.06;1751897;80;21582;-72
2020/12/22 09:25:17;;;;;;;2.87;2.50;;;;;;;-3.25;76.80;101492.23;1751838;81;21118;-73
2020/12/22 09:27:46;;;;;;;3.67;2.37;;;;;;;-3.26;76.80;101491.81;1713215;82;20980;-74
2020/12/22 09:30:15;;;;;;;3.30;2.27;;;;;;;-3.23;76.86;101490.87;1718656;83;21040;-74
2020/12/22 09:32:46;;;;;;;4.73;3.13;;;;;;;-3.25;76.79;101492.23;1713978;83;21559;-75
2020/12/22 09:35:14;;;;;;;4.93;3.30;;;;;;;-3.26;76.78;101484.77;1725990;80;21551;-77
2020/12/22 09:37:46;;;;;;;2.47;2.27;;;;;;;-3.20;76.89;101482.84;1741715;80;21837;-74
2020/12/22 09:40:14;;;;;;;4.70;3.07;;;;;;;-3.14;77.02;101482.64;1713390;82;21131;-74
2020/12/22 09:42:42;;;;;;;4.53;2.97;;;;;;;-3.11;77.01;101474.14;1724644;81;21008;-75
2020/12/22 09:45:11;;;;;;;3.00;2.23;;;;;;;-3.11;76.88;101476.80;1774143;80;20939;-77
2020/12/22 09:47:39;;;;;;;4.63;2.63;;;;;;;-3.11;76.91;101459.59;1779110;80;20995;-74
2020/12/22 09:50:09;;;;;;;4.67;2.83;;;;;;;-3.06;76.97;101463.42;1776736;79;21158;-75
2020/12/22 09:52:37;;;;;;;3.93;2.03;;;;;;;-3.01;77.00;101461.94;1777496;78;21173;-72
2020/12/22 09:55:05;;;;;;;3.43;3.13;;;;;;;-3.00;76.95;101458.39;1780001;80;21063;-76
2020/12/22 09:57:35;;;;;;;2.93;2.47;;;;;;;-2.95;77.00;101452.49;1783064;79;21034;-72
2020/12/22 10:00:04;;;;;;;3.90;3.50;;;;;;;-2.93;76.96;101446.69;1786217;79;20972;-77
2020/12/22 10:02:33;;;;;;;3.00;2.10;;;;;;;-2.95;76.84;101444.55;1784974;80;22466;-77
2020/12/22 10:05:01;;;;;;;6.30;2.90;;;;;;;-2.98;76.73;101444.17;1780506;80;20982;-78
2020/12/22 10:07:30;;;;;;;3.90;3.13;;;;;;;-3.00;76.71;101444.69;1783541;79;21147;-81
2020/12/22 10:09:57;;;;;;;5.07;3.00;;;;;;;-3.03;76.67;101439.95;1780099;80;21003;-77
2020/12/22 10:12:25;;;;;;;4.23;2.80;;;;;;;-3.04;76.70;101436.92;1785769;80;20935;-78
2020/12/22 10:14:54;;;;;;;7.33;3.53;;;;;;;-3.06;76.76;101434.31;1717632;82;22317;-74
2020/12/22 10:17:22;;;;;;;4.13;3.10;;;;;;;-3.08;76.73;101430.39;1796362;78;21041;-75
2020/12/22 10:19:50;;;;;;;3.13;2.30;;;;;;;-3.09;76.73;101427.79;1721674;81;21029;-75
2020/12/22 10:22:18;;;;;;;6.90;4.10;;;;;;;-3.10;76.75;101428.69;1739526;81;21062;-77
2020/12/22 10:24:46;;;;;;;3.87;2.33;;;;;;;-3.12;76.71;101426.09;1733113;80;21050;-75
2020/12/22 10:27:14;;;;;;;7.17;4.23;;;;;;;-3.14;76.71;101421.78;1749416;80;21058;-79
2020/12/22 10:29:44;;;;;;;4.30;3.33;;;;;;;-3.11;76.82;101425.66;1727817;81;21484;-76
2020/12/22 10:32:12;;;;;;;4.60;3.40;;;;;;;-3.11;76.81;101424.34;1726697;81;21191;-76
2020/12/22 10:34:40;;;;;;;5.57;2.73;;;;;;;-3.12;76.87;101422.59;1722598;81;21539;-78
2020/12/22 10:37:09;;;;;;;3.67;2.83;;;;;;;-3.11;76.92;101415.93;1744480;80;20986;-74
2020/12/22 10:39:37;;;;;;;4.90;3.13;;;;;;;-3.08;76.93;101421.56;1736325;80;21001;-79
2020/12/22 10:42:05;;;;;;;7.07;4.40;;;;;;;-3.08;76.94;101419.81;1741318;81;20959;-78
2020/12/22 10:44:33;;;;;;;3.37;2.67;;;;;;;-3.04;76.98;101419.25;1773226;79;21017;-76
2020/12/22 10:47:01;;;;;;;4.27;2.83;;;;;;;-2.99;76.99;101416.43;1795562;77;21546;-77
2020/12/22 10:49:30;;;;;;;4.03;3.00;;;;;;;-2.97;76.92;101419.45;1820751;77;21110;-75
2020/12/22 10:51:57;;;;;;;4.63;3.30;;;;;;;-2.98;76.86;101415.53;1744100;81;21376;-73
2020/12/22 10:54:25;;;;;;;5.60;2.83;;;;;;;-3.01;76.83;101412.54;1817928;77;21554;-72
2020/12/22 10:56:54;;;;;;;2.77;2.57;;;;;;;-3.06;76.78;101407.39;1781665;78;20930;-72
2020/12/22 10:59:22;;;;;;;4.50;3.40;;;;;;;-3.10;76.75;101404.88;1784172;79;21013;-71
2020/12/22 11:01:52;;;;;;;2.57;2.37;;;;;;;-3.12;76.80;101403.60;1779559;79;20997;-72
2020/12/22 11:04:20;;;;;;;2.70;2.50;;;;;;;-3.12;76.93;101398.77;1779310;79;21642;-71
2020/12/22 11:09:22;;;;;;;5.40;3.33;;;;;;;-3.10;77.01;101398.27;1780235;78;21005;-80
2020/12/22 11:11:51;;;;;;;4.40;2.87;;;;;;;-3.12;77.02;101399.63;1780835;79;21059;-70
2020/12/22 11:14:19;;;;;;;5.97;3.57;;;;;;;-3.13;77.08;101397.92;1780947;79;20937;-73
2020/12/22 11:16:47;;;;;;;3.80;2.77;;;;;;;-3.10;77.17;101400.47;1711606;80;21788;-76
2020/12/22 11:19:18;;;;;;;5.87;3.53;;;;;;;-3.09;77.20;101399.54;1702690;82;20964;-73
2020/12/22 11:21:46;;;;;;;5.33;3.10;;;;;;;-3.05;77.29;101391.04;1699051;83;21630;-70
2020/12/22 11:24:17;;;;;;;6.60;2.93;;;;;;;-3.02;77.37;101393.59;1782467;79;21566;-73
2020/12/22 11:26:45;;;;;;;3.90;2.90;;;;;;;-2.98;77.40;101389.06;1785530;78;20994;-74
2020/12/22 11:29:12;;;;;;;2.77;2.57;;;;;;;-2.93;77.47;101392.42;1788173;79;21020;-71
2020/12/22 11:31:40;;;;;;;3.07;2.67;;;;;;;-2.89;77.35;101393.57;1781636;78;21072;-74
2020/12/22 11:34:09;;;;;;;2.87;2.60;;;;;;;-2.87;77.22;101387.80;1777319;79;21527;-74
2020/12/22 11:36:37;;;;;;;2.77;2.13;;;;;;;-2.88;77.00;101382.55;1775056;79;21020;-73